Time;durP1;ratioP1;P1;durP2;ratioP2;P2;SDS_P1;SDS_P2;PMS_P1;PMS_P2;Temp;Humidity;BMP_temperature;BMP_pressure;BME280_temperature;BME280_humidity;BME280_pressure;Samples;Min_cycle;Max_cycle;Signal;HPM_P1;HPM_P2
2023/07/13 00:02:09;;;;;;;4.70;3.23;;;;;;;;;;4977382;28;20214;-72
2023/07/13 00:05:13;;;;;;;3.13;2.83;;;;;;;;;;4976482;28;20183;-73
2023/07/13 00:08:17;;;;;;;4.90;2.97;;;;;;;;;;4976213;28;20183;-72
2023/07/13 00:11:22;;;;;;;3.90;3.40;;;;;;;;;;4975748;28;20219;-72
2023/07/13 00:14:27;;;;;;;3.53;3.13;;;;;;;;;;4976577;28;20203;-72
2023/07/13 00:17:31;;;;;;;4.23;3.20;;;;;;;;;;4975797;28;20175;-72
2023/07/13 00:20:36;;;;;;;3.50;3.10;;;;;;;;;;4976663;28;20183;-72
2023/07/13 00:23:41;;;;;;;7.20;3.60;;;;;;;;;;4976477;28;20183;-72
2023/07/13 00:26:46;;;;;;;4.30;3.40;;;;;;;;;;4986782;28;20210;-72
2023/07/13 00:29:50;;;;;;;7.43;3.23;;;;;;;;;;4964212;28;20199;-72
2023/07/13 00:32:54;;;;;;;7.10;3.23;;;;;;;;;;4976019;28;20207;-72
2023/07/13 00:35:58;;;;;;;5.33;3.50;;;;;;;;;;4964288;28;20179;-72
2023/07/13 00:39:04;;;;;;;3.57;3.10;;;;;;;;;;4975702;28;20183;-72
2023/07/13 00:42:09;;;;;;;6.43;3.60;;;;;;;;;;4975108;28;20222;-72
2023/07/13 00:45:13;;;;;;;4.70;3.53;;;;;;;;;;4975315;28;20190;-72
2023/07/13 00:48:21;;;;;;;6.10;3.57;;;;;;;;;;4975253;28;20171;-72
2023/07/13 00:51:31;;;;;;;7.13;3.40;;;;;;;;;;4974816;28;20218;-72
2023/07/13 00:54:39;;;;;;;4.53;3.80;;;;;;;;;;4974877;28;20543;-72
2023/07/13 00:57:43;;;;;;;12.67;3.60;;;;;;;;;;4975074;28;20175;-72
2023/07/13 01:00:48;;;;;;;5.57;3.47;;;;;;;;;;4975521;28;20214;-73
2023/07/13 01:03:53;;;;;;;5.60;3.77;;;;;;;;;;4974956;28;20183;-72
2023/07/13 01:06:58;;;;;;;5.83;3.30;;;;;;;;;;4974747;28;20618;-72
2023/07/13 01:10:03;;;;;;;5.03;3.57;;;;;;;;;;4974851;28;20183;-72
2023/07/13 01:13:10;;;;;;;4.67;3.83;;;;;;;;;;4974746;28;20187;-72
2023/07/13 01:16:22;;;;;;;7.57;3.97;;;;;;;;;;4974973;28;20175;-72
2023/07/13 01:19:42;;;;;;;4.77;3.73;;;;;;;;;;4974631;28;20183;-72
2023/07/13 01:22:46;;;;;;;9.50;4.07;;;;;;;;;;4974564;28;20646;-72
2023/07/13 01:25:51;;;;;;;7.33;4.07;;;;;;;;;;4974207;28;20214;-73
2023/07/13 01:28:56;;;;;;;4.83;3.60;;;;;;;;;;4974578;28;20629;-72
2023/07/13 01:32:00;;;;;;;6.43;4.10;;;;;;;;;;4974371;28;20214;-72
2023/07/13 01:35:05;;;;;;;5.87;4.13;;;;;;;;;;4975272;28;20183;-72
2023/07/13 01:38:09;;;;;;;9.07;3.67;;;;;;;;;;4963257;28;20182;-72
2023/07/13 01:41:14;;;;;;;10.30;3.60;;;;;;;;;;4963123;28;20222;-72
2023/07/13 01:44:18;;;;;;;4.97;3.77;;;;;;;;;;4974137;28;20206;-72
2023/07/13 01:47:23;;;;;;;5.80;3.90;;;;;;;;;;4973819;28;20218;-72
2023/07/13 01:50:27;;;;;;;5.50;3.97;;;;;;;;;;4962698;28;20195;-73
2023/07/13 01:53:31;;;;;;;9.10;4.37;;;;;;;;;;4973831;28;20199;-72
2023/07/13 01:56:36;;;;;;;7.30;4.30;;;;;;;;;;4974847;28;20543;-72
2023/07/13 01:59:40;;;;;;;7.00;4.07;;;;;;;;;;4974078;28;20183;-72
2023/07/13 02:02:44;;;;;;;6.23;3.90;;;;;;;;;;4973720;28;20191;-72
2023/07/13 02:05:48;;;;;;;6.83;3.93;;;;;;;;;;4973802;28;20187;-72
2023/07/13 02:08:53;;;;;;;9.17;3.70;;;;;;;;;;4974105;28;20191;-72
2023/07/13 02:11:57;;;;;;;9.53;4.37;;;;;;;;;;4973554;28;20222;-72
2023/07/13 02:15:02;;;;;;;8.00;3.63;;;;;;;;;;4970507;28;20194;-73
2023/07/13 02:18:06;;;;;;;5.67;3.60;;;;;;;;;;4955330;29;20529;-73
2023/07/13 02:21:11;;;;;;;5.17;3.87;;;;;;;;;;4954348;29;20568;-73
2023/07/13 02:24:17;;;;;;;8.23;4.70;;;;;;;;;;4955425;29;20179;-72
2023/07/13 02:27:21;;;;;;;7.67;4.60;;;;;;;;;;4954531;29;20212;-72
2023/07/13 02:30:29;;;;;;;10.13;4.80;;;;;;;;;;4954945;29;20187;-73
2023/07/13 02:33:33;;;;;;;9.93;5.30;;;;;;;;;;4954440;29;20198;-73
2023/07/13 02:36:37;;;;;;;5.50;4.17;;;;;;;;;;4953935;29;20195;-73
2023/07/13 02:39:42;;;;;;;7.23;4.70;;;;;;;;;;4954405;29;20635;-73
2023/07/13 02:42:46;;;;;;;11.30;5.63;;;;;;;;;;4954263;29;20176;-73
2023/07/13 02:45:50;;;;;;;9.00;5.00;;;;;;;;;;4953850;29;20190;-73
2023/07/13 02:48:55;;;;;;;9.00;5.43;;;;;;;;;;4954901;29;20180;-73
2023/07/13 02:51:59;;;;;;;9.17;5.27;;;;;;;;;;4954070;29;20215;-72
2023/07/13 02:55:03;;;;;;;9.73;5.30;;;;;;;;;;4943307;29;20180;-73
2023/07/13 02:58:08;;;;;;;13.93;4.83;;;;;;;;;;4954002;29;20640;-73
2023/07/13 03:01:12;;;;;;;9.87;5.37;;;;;;;;;;4953624;29;20223;-73
2023/07/13 03:04:19;;;;;;;8.27;5.03;;;;;;;;;;4942947;29;20207;-73
2023/07/13 03:07:25;;;;;;;9.13;5.20;;;;;;;;;;4953679;29;20220;-73
2023/07/13 03:10:30;;;;;;;7.87;4.93;;;;;;;;;;4953793;29;20184;-73
2023/07/13 03:13:34;;;;;;;9.20;5.93;;;;;;;;;;4954262;29;20184;-73
2023/07/13 03:16:40;;;;;;;8.20;4.90;;;;;;;;;;4953580;29;20663;-73
2023/07/13 03:19:44;;;;;;;7.93;5.50;;;;;;;;;;4954125;29;20184;-73
2023/07/13 03:22:49;;;;;;;6.73;5.47;;;;;;;;;;4943160;29;20176;-73
2023/07/13 03:26:10;;;;;;;8.33;5.23;;;;;;;;;;4953505;29;20199;-72
2023/07/13 03:29:17;;;;;;;6.13;5.47;;;;;;;;;;4953796;29;20188;-74
2023/07/13 03:32:22;;;;;;;8.17;5.30;;;;;;;;;;4972173;28;20570;-73
2023/07/13 03:35:26;;;;;;;8.37;5.07;;;;;;;;;;4976957;28;20199;-73
2023/07/13 03:38:31;;;;;;;7.30;5.23;;;;;;;;;;4977138;28;20198;-73
2023/07/13 03:41:36;;;;;;;7.37;4.50;;;;;;;;;;4976359;28;20218;-73
2023/07/13 03:44:40;;;;;;;7.67;4.30;;;;;;;;;;4999816;23;20226;-73
2023/07/13 03:47:44;;;;;;;6.53;4.47;;;;;;;;;;4996342;28;20225;-73
2023/07/13 03:50:51;;;;;;;8.57;4.20;;;;;;;;;;4984313;28;20214;-73
2023/07/13 03:53:56;;;;;;;7.47;4.77;;;;;;;;;;4995615;28;20645;-73
2023/07/13 03:57:00;;;;;;;8.10;4.37;;;;;;;;;;4984370;28;20617;-73
2023/07/13 04:00:07;;;;;;;11.13;4.50;;;;;;;;;;4984607;28;20202;-73
2023/07/13 04:03:19;;;;;;;7.43;3.80;;;;;;;;;;4996453;28;20189;-73
2023/07/13 04:06:29;;;;;;;6.47;3.90;;;;;;;;;;4996489;28;20202;-73
2023/07/13 04:09:34;;;;;;;6.50;3.70;;;;;;;;;;4972794;28;20174;-73
2023/07/13 04:12:38;;;;;;;10.03;3.50;;;;;;;;;;4995696;28;20222;-72
2023/07/13 04:15:42;;;;;;;4.93;3.20;;;;;;;;;;4996142;28;20553;-73
2023/07/13 04:18:47;;;;;;;8.60;3.90;;;;;;;;;;4996103;28;20197;-73
2023/07/13 04:21:52;;;;;;;10.73;3.90;;;;;;;;;;4995524;28;20218;-72
2023/07/13 04:24:56;;;;;;;7.13;3.63;;;;;;;;;;4996005;28;20209;-73
2023/07/13 04:28:00;;;;;;;9.67;3.23;;;;;;;;;;4994791;28;20217;-73
2023/07/13 04:31:05;;;;;;;8.33;4.00;;;;;;;;;;4995487;28;20222;-73
2023/07/13 04:34:08;;;;;;;9.17;3.60;;;;;;;;;;4995135;28;20178;-73
2023/07/13 04:37:13;;;;;;;6.10;3.43;;;;;;;;;;4994574;28;20194;-72
2023/07/13 04:40:18;;;;;;;6.83;3.63;;;;;;;;;;4994686;28;20198;-73
2023/07/13 04:43:23;;;;;;;10.53;3.40;;;;;;;;;;4995024;28;20633;-72
2023/07/13 04:46:27;;;;;;;6.33;3.37;;;;;;;;;;4995278;28;20182;-72
2023/07/13 04:49:31;;;;;;;7.50;3.77;;;;;;;;;;4994879;28;20182;-72
2023/07/13 04:52:35;;;;;;;8.17;3.57;;;;;;;;;;4995276;28;20217;-71
2023/07/13 04:55:40;;;;;;;7.50;3.47;;;;;;;;;;4995020;28;20182;-72
2023/07/13 04:58:44;;;;;;;6.57;3.53;;;;;;;;;;4993821;28;20538;-70
2023/07/13 05:01:49;;;;;;;7.77;3.10;;;;;;;;;;4974272;28;20226;-71
2023/07/13 05:04:53;;;;;;;12.40;2.93;;;;;;;;;;4976032;28;20183;-72
2023/07/13 05:07:57;;;;;;;5.83;3.00;;;;;;;;;;4974773;28;20221;-72
2023/07/13 05:11:04;;;;;;;6.57;3.00;;;;;;;;;;4975265;28;20222;-71
2023/07/13 05:14:09;;;;;;;7.67;3.03;;;;;;;;;;4976085;28;20626;-72
2023/07/13 05:17:13;;;;;;;8.10;2.70;;;;;;;;;;4975189;28;20179;-71
2023/07/13 05:20:19;;;;;;;7.13;2.93;;;;;;;;;;4975101;28;20531;-71
2023/07/13 05:23:23;;;;;;;5.73;2.87;;;;;;;;;;4975424;28;20187;-72
2023/07/13 05:26:27;;;;;;;6.73;2.77;;;;;;;;;;4975563;28;20186;-72
2023/07/13 05:29:32;;;;;;;5.87;2.60;;;;;;;;;;4975547;28;20170;-72
2023/07/13 05:32:36;;;;;;;4.43;2.70;;;;;;;;;;4975184;28;20222;-72
2023/07/13 05:35:40;;;;;;;4.50;2.70;;;;;;;;;;4974228;28;20194;-71
2023/07/13 05:38:44;;;;;;;6.10;2.33;;;;;;;;;;4974237;28;20199;-72
2023/07/13 05:41:48;;;;;;;4.50;2.50;;;;;;;;;;4975467;28;20210;-72
2023/07/13 05:44:53;;;;;;;7.50;2.73;;;;;;;;;;4974009;28;20202;-72
2023/07/13 05:47:56;;;;;;;3.47;2.57;;;;;;;;;;4977112;28;20225;-71
2023/07/13 05:51:01;;;;;;;4.57;2.50;;;;;;;;;;4984602;28;20701;-71
2023/07/13 05:54:05;;;;;;;5.37;2.83;;;;;;;;;;4984854;28;20186;-71
2023/07/13 05:57:10;;;;;;;6.27;2.63;;;;;;;;;;4982361;28;20191;-72
2023/07/13 06:00:14;;;;;;;7.30;2.43;;;;;;;;;;4983362;28;20187;-71
2023/07/13 06:03:18;;;;;;;6.17;2.40;;;;;;;;;;4983655;28;20186;-72
2023/07/13 06:06:22;;;;;;;5.43;2.50;;;;;;;;;;4983256;28;20197;-71
2023/07/13 06:09:27;;;;;;;5.97;2.50;;;;;;;;;;4984558;28;20194;-72
2023/07/13 06:12:31;;;;;;;4.17;2.70;;;;;;;;;;4985225;28;20538;-72
2023/07/13 06:15:35;;;;;;;6.13;2.07;;;;;;;;;;4992924;28;20197;-72
2023/07/13 06:18:40;;;;;;;7.47;2.50;;;;;;;;;;4993692;28;20198;-71
2023/07/13 06:21:44;;;;;;;5.30;1.90;;;;;;;;;;4979061;28;20610;-70
2023/07/13 06:24:48;;;;;;;4.00;1.87;;;;;;;;;;4973479;28;20179;-71
2023/07/13 06:27:52;;;;;;;7.00;2.40;;;;;;;;;;4974135;28;20211;-72
2023/07/13 06:30:58;;;;;;;4.60;2.20;;;;;;;;;;4976075;28;20221;-70
2023/07/13 06:34:02;;;;;;;6.73;2.47;;;;;;;;;;4979343;28;20212;-70
2023/07/13 06:37:06;;;;;;;6.60;1.90;;;;;;;;;;4974501;28;20186;-71
2023/07/13 06:40:10;;;;;;;8.97;2.17;;;;;;;;;;4974716;28;20186;-71
2023/07/13 06:43:14;;;;;;;2.70;1.97;;;;;;;;;;4974409;28;20182;-72
2023/07/13 06:46:21;;;;;;;7.10;2.10;;;;;;;;;;4974350;28;20183;-71
2023/07/13 06:49:25;;;;;;;4.50;1.60;;;;;;;;;;4974195;28;20555;-72
2023/07/13 06:52:30;;;;;;;5.60;2.00;;;;;;;;;;4972962;28;20570;-70
2023/07/13 06:55:34;;;;;;;5.50;2.33;;;;;;;;;;4974271;28;20183;-71
2023/07/13 06:58:38;;;;;;;4.10;1.80;;;;;;;;;;4973724;28;20183;-72
2023/07/13 07:01:42;;;;;;;4.80;2.00;;;;;;;;;;4973842;28;20222;-71
2023/07/13 07:04:46;;;;;;;5.13;2.03;;;;;;;;;;4973228;28;20187;-71
2023/07/13 07:07:52;;;;;;;3.53;1.77;;;;;;;;;;4977821;28;20215;-72
2023/07/13 07:10:56;;;;;;;4.00;2.07;;;;;;;;;;4976915;28;20222;-71
2023/07/13 07:14:00;;;;;;;4.13;1.60;;;;;;;;;;4977881;28;20535;-71
2023/07/13 07:17:05;;;;;;;6.27;2.00;;;;;;;;;;4976961;28;20179;-72
2023/07/13 07:20:10;;;;;;;8.27;2.17;;;;;;;;;;4977947;28;20633;-72
2023/07/13 07:23:14;;;;;;;2.67;1.80;;;;;;;;;;4976840;28;20187;-72
2023/07/13 07:26:18;;;;;;;4.60;1.87;;;;;;;;;;4976528;28;20182;-72
2023/07/13 07:29:25;;;;;;;4.13;1.83;;;;;;;;;;4977503;28;20210;-71
2023/07/13 07:32:30;;;;;;;4.50;1.70;;;;;;;;;;4977468;28;20223;-71
2023/07/13 07:35:34;;;;;;;3.73;1.80;;;;;;;;;;4977121;28;20194;-72
2023/07/13 07:38:38;;;;;;;9.37;2.40;;;;;;;;;;4976732;28;20203;-72
2023/07/13 07:41:42;;;;;;;5.80;2.07;;;;;;;;;;4965176;28;20222;-71
2023/07/13 07:44:46;;;;;;;5.87;1.40;;;;;;;;;;4977097;28;20214;-71
2023/07/13 07:47:51;;;;;;;3.33;1.60;;;;;;;;;;4976388;28;20214;-72
2023/07/13 07:50:55;;;;;;;4.27;1.80;;;;;;;;;;4976348;28;20218;-71
2023/07/13 07:53:59;;;;;;;7.87;1.90;;;;;;;;;;4976293;28;20630;-72
2023/07/13 07:57:03;;;;;;;4.03;1.63;;;;;;;;;;4965146;28;20524;-72
2023/07/13 08:00:08;;;;;;;3.13;1.70;;;;;;;;;;4976662;28;20176;-71
2023/07/13 08:03:18;;;;;;;5.53;1.83;;;;;;;;;;4976527;28;20195;-72
2023/07/13 08:06:23;;;;;;;3.00;1.60;;;;;;;;;;4976486;28;20199;-72
2023/07/13 08:09:27;;;;;;;6.10;1.77;;;;;;;;;;4975848;28;20563;-72
2023/07/13 08:12:38;;;;;;;2.70;1.70;;;;;;;;;;4976434;28;20219;-71
2023/07/13 08:15:43;;;;;;;6.47;1.50;;;;;;;;;;4976563;28;20179;-71
2023/07/13 08:18:47;;;;;;;3.33;1.67;;;;;;;;;;4975422;28;20175;-72
2023/07/13 08:21:51;;;;;;;7.03;1.67;;;;;;;;;;4976289;28;20218;-72
2023/07/13 08:24:55;;;;;;;2.57;1.50;;;;;;;;;;4976789;28;20187;-72
2023/07/13 08:27:59;;;;;;;3.13;1.73;;;;;;;;;;4976844;28;20661;-71
2023/07/13 08:31:07;;;;;;;5.90;1.67;;;;;;;;;;4976269;28;20222;-72
2023/07/13 08:34:11;;;;;;;6.07;1.53;;;;;;;;;;4975966;28;20180;-72
2023/07/13 08:37:16;;;;;;;3.97;1.70;;;;;;;;;;4975365;28;20185;-72
2023/07/13 08:40:25;;;;;;;3.93;1.47;;;;;;;;;;4953391;28;20183;-72
2023/07/13 08:43:34;;;;;;;8.80;1.80;;;;;;;;;;4976115;28;20205;-72
2023/07/13 08:46:41;;;;;;;10.80;2.60;;;;;;;;;;4976154;28;20176;-72
2023/07/13 08:49:46;;;;;;;4.95;1.52;;;;;;;;;;4975973;28;20302;-72
2023/07/13 08:52:50;;;;;;;5.38;1.30;;;;;;;;;;4975990;28;20188;-72
2023/07/13 08:55:58;;;;;;;2.50;1.05;;;;;;;;;;4976181;28;20629;-72
2023/07/13 08:59:16;;;;;;;3.22;1.27;;;;;;;;;;4974821;28;20521;-72
2023/07/13 09:02:34;;;;;;;3.97;1.10;;;;;;;;;;4974659;28;20216;-72
2023/07/13 09:05:42;;;;;;;1.70;0.90;;;;;;;;;;4974876;28;20190;-72
2023/07/13 09:09:03;;;;;;;2.03;1.30;;;;;;;;;;4963478;28;20224;-72
2023/07/13 09:12:22;;;;;;;3.90;1.42;;;;;;;;;;4963488;28;20227;-71
2023/07/13 09:15:34;;;;;;;2.85;1.50;;;;;;;;;;4974709;28;20184;-72
2023/07/13 09:18:42;;;;;;;3.38;1.33;;;;;;;;;;4976000;28;20183;-73
2023/07/13 09:21:47;;;;;;;4.93;1.33;;;;;;;;;;4975398;28;20562;-72
2023/07/13 09:24:56;;;;;;;3.80;1.27;;;;;;;;;;4963773;28;20627;-73
2023/07/13 09:28:15;;;;;;;4.03;1.40;;;;;;;;;;4975187;28;20184;-73
2023/07/13 09:31:25;;;;;;;3.35;1.30;;;;;;;;;;4974332;28;20219;-72
2023/07/13 09:34:30;;;;;;;2.97;1.02;;;;;;;;;;4974661;28;20187;-71
2023/07/13 09:37:35;;;;;;;2.25;1.33;;;;;;;;;;4974079;28;20183;-72
2023/07/13 09:40:43;;;;;;;5.20;1.30;;;;;;;;;;4974958;28;20626;-73
2023/07/13 09:44:10;;;;;;;3.72;1.45;;;;;;;;;;4974634;28;20207;-72
2023/07/13 09:47:26;;;;;;;2.72;1.08;;;;;;;;;;5015095;23;20726;-73
2023/07/13 09:50:31;;;;;;;5.32;1.30;;;;;;;;;;5013863;28;20182;-73
2023/07/13 09:53:36;;;;;;;4.47;1.27;;;;;;;;;;5014269;28;20177;-73
2023/07/13 09:56:40;;;;;;;3.38;1.38;;;;;;;;;;5013104;28;20184;-73
2023/07/13 09:59:47;;;;;;;2.92;1.00;;;;;;;;;;5013819;28;20182;-73
2023/07/13 10:03:05;;;;;;;2.20;0.90;;;;;;;;;;5013332;28;20182;-72
2023/07/13 10:06:16;;;;;;;3.67;1.08;;;;;;;;;;5012877;28;20182;-72
2023/07/13 10:09:20;;;;;;;5.47;1.40;;;;;;;;;;5013683;28;20206;-73
2023/07/13 10:12:25;;;;;;;2.53;1.10;;;;;;;;;;5013717;28;20214;-73
2023/07/13 10:15:29;;;;;;;4.13;1.20;;;;;;;;;;5013782;28;20174;-73
2023/07/13 10:18:43;;;;;;;3.40;1.17;;;;;;;;;;5013687;28;20166;-72
2023/07/13 10:21:59;;;;;;;1.75;1.00;;;;;;;;;;5013391;28;20229;-73
2023/07/13 10:25:13;;;;;;;2.13;1.05;;;;;;;;;;5013351;28;20186;-72
2023/07/13 10:28:30;;;;;;;2.97;1.42;;;;;;;;;;5013527;28;20515;-73
2023/07/13 10:31:37;;;;;;;4.22;1.23;;;;;;;;;;5013483;28;20217;-73
2023/07/13 10:34:44;;;;;;;2.88;1.10;;;;;;;;;;5013585;28;20178;-72
2023/07/13 10:37:51;;;;;;;1.88;1.25;;;;;;;;;;5013152;28;20193;-72
2023/07/13 10:41:17;;;;;;;6.45;1.40;;;;;;;;;;5014276;28;20213;-73
2023/07/13 10:44:28;;;;;;;4.25;1.15;;;;;;;;;;5016816;28;20182;-72
2023/07/13 10:47:32;;;;;;;2.45;1.00;;;;;;;;;;5017265;28;20201;-73
2023/07/13 10:50:42;;;;;;;3.88;1.65;;;;;;;;;;5017338;28;20217;-73
2023/07/13 10:53:47;;;;;;;2.78;1.00;;;;;;;;;;5017254;28;20175;-73
2023/07/13 10:57:17;;;;;;;2.22;1.10;;;;;;;;;;5016947;28;20174;-72
2023/07/13 11:00:21;;;;;;;2.40;1.00;;;;;;;;;;5016110;28;20169;-73
2023/07/13 11:03:28;;;;;;;3.50;1.30;;;;;;;;;;5016802;28;20178;-73
2023/07/13 11:06:45;;;;;;;4.63;1.40;;;;;;;;;;5016706;28;20178;-73
2023/07/13 11:09:52;;;;;;;2.97;1.15;;;;;;;;;;5017036;28;20209;-73
2023/07/13 11:12:56;;;;;;;5.03;1.40;;;;;;;;;;5016095;28;20178;-73
2023/07/13 11:16:00;;;;;;;5.10;1.30;;;;;;;;;;5016570;28;20181;-73
2023/07/13 11:19:07;;;;;;;2.78;1.38;;;;;;;;;;5016778;28;20178;-73
2023/07/13 11:22:13;;;;;;;6.00;1.10;;;;;;;;;;5016250;28;20210;-73
2023/07/13 11:25:27;;;;;;;3.45;1.02;;;;;;;;;;5016659;28;20190;-73
2023/07/13 11:28:32;;;;;;;4.80;1.48;;;;;;;;;;5016817;28;20198;-73
2023/07/13 11:31:36;;;;;;;2.03;1.00;;;;;;;;;;5016474;28;20225;-73
2023/07/13 11:34:41;;;;;;;2.72;1.33;;;;;;;;;;5015900;28;20628;-73
2023/07/13 11:37:47;;;;;;;3.67;1.27;;;;;;;;;;5016464;28;20185;-73
2023/07/13 11:40:53;;;;;;;2.63;1.20;;;;;;;;;;5016629;28;20213;-73
2023/07/13 11:44:14;;;;;;;2.65;1.27;;;;;;;;;;5015638;28;20181;-73
2023/07/13 11:47:22;;;;;;;3.25;1.30;;;;;;;;;;5016199;28;20213;-72
2023/07/13 11:50:27;;;;;;;1.95;1.20;;;;;;;;;;5016000;28;20210;-73
2023/07/13 11:53:39;;;;;;;3.10;1.42;;;;;;;;;;5015856;28;20201;-73
2023/07/13 11:56:43;;;;;;;3.40;1.00;;;;;;;;;;5015814;28;20190;-72
2023/07/13 11:59:47;;;;;;;3.05;1.25;;;;;;;;;;5015775;28;20300;-73
2023/07/13 12:02:54;;;;;;;1.80;1.42;;;;;;;;;;5015148;28;20644;-73
2023/07/13 12:06:07;;;;;;;2.40;1.17;;;;;;;;;;5015815;28;20182;-73
2023/07/13 12:09:17;;;;;;;3.38;1.02;;;;;;;;;;5015197;28;20213;-73
2023/07/13 12:12:22;;;;;;;5.15;1.23;;;;;;;;;;5014954;28;20562;-73
2023/07/13 12:15:41;;;;;;;5.20;1.50;;;;;;;;;;5014656;28;20186;-73
2023/07/13 12:18:46;;;;;;;2.22;1.15;;;;;;;;;;5015921;28;20186;-73
2023/07/13 12:21:53;;;;;;;4.30;1.40;;;;;;;;;;5015183;28;20210;-73
2023/07/13 12:24:57;;;;;;;3.80;1.40;;;;;;;;;;5015524;28;20181;-73
2023/07/13 12:28:23;;;;;;;4.93;1.58;;;;;;;;;;5014628;28;20640;-73
2023/07/13 12:31:41;;;;;;;2.28;1.30;;;;;;;;;;5015082;28;20214;-73
2023/07/13 12:34:54;;;;;;;2.70;1.45;;;;;;;;;;5015352;28;20183;-73
2023/07/13 12:38:00;;;;;;;2.65;1.48;;;;;;;;;;5015588;28;20179;-73
2023/07/13 12:41:08;;;;;;;2.50;1.30;;;;;;;;;;5014857;28;20217;-72
2023/07/13 12:44:16;;;;;;;2.13;1.27;;;;;;;;;;5015437;28;20178;-73
2023/07/13 12:47:20;;;;;;;3.13;1.45;;;;;;;;;;5014811;28;20668;-73
2023/07/13 12:50:33;;;;;;;4.07;1.50;;;;;;;;;;5014116;28;20210;-73
2023/07/13 12:53:50;;;;;;;3.45;1.30;;;;;;;;;;5014719;28;20198;-73
2023/07/13 12:56:58;;;;;;;3.90;1.30;;;;;;;;;;5014851;28;20190;-73
2023/07/13 13:00:04;;;;;;;2.83;1.02;;;;;;;;;;5014590;28;20518;-73
2023/07/13 13:03:26;;;;;;;5.15;1.30;;;;;;;;;;5014218;28;20202;-73
2023/07/13 13:06:31;;;;;;;3.70;1.42;;;;;;;;;;5014510;28;20640;-73
2023/07/13 13:09:35;;;;;;;2.88;1.48;;;;;;;;;;5014601;28;20216;-72
2023/07/13 13:12:42;;;;;;;5.00;1.23;;;;;;;;;;5013489;28;20220;-73
2023/07/13 13:15:47;;;;;;;1.20;1.10;;;;;;;;;;5014552;28;20182;-73
2023/07/13 13:18:53;;;;;;;2.67;1.15;;;;;;;;;;5002236;28;20198;-73
2023/07/13 13:21:59;;;;;;;2.33;1.40;;;;;;;;;;5014405;28;20212;-73
2023/07/13 13:25:03;;;;;;;2.97;1.45;;;;;;;;;;5014170;28;20632;-73
2023/07/13 13:28:14;;;;;;;2.78;1.42;;;;;;;;;;5014114;28;20537;-73
2023/07/13 13:31:19;;;;;;;3.00;1.73;;;;;;;;;;5013364;28;20232;-73
2023/07/13 13:34:24;;;;;;;3.05;1.38;;;;;;;;;;5013378;28;20182;-73
2023/07/13 13:37:28;;;;;;;5.10;1.45;;;;;;;;;;5013051;28;20643;-73
2023/07/13 13:40:32;;;;;;;2.95;1.30;;;;;;;;;;5013235;28;20181;-73
2023/07/13 13:43:36;;;;;;;2.45;1.63;;;;;;;;;;5012936;28;20195;-74
2023/07/13 13:46:41;;;;;;;5.15;2.90;;;;;;;;;;5013613;28;20208;-73
2023/07/13 13:49:47;;;;;;;4.22;1.50;;;;;;;;;;5014115;28;20216;-73
2023/07/13 13:52:51;;;;;;;2.63;1.25;;;;;;;;;;5013757;28;20193;-73
2023/07/13 13:55:55;;;;;;;3.67;1.40;;;;;;;;;;5012695;28;20545;-73
2023/07/13 13:58:59;;;;;;;2.92;1.20;;;;;;;;;;5013774;28;20196;-72
2023/07/13 14:02:21;;;;;;;3.72;1.15;;;;;;;;;;5012547;28;20213;-73
2023/07/13 14:05:26;;;;;;;2.33;1.15;;;;;;;;;;5013098;28;20598;-73
2023/07/13 14:08:30;;;;;;;2.67;1.50;;;;;;;;;;5013825;28;20518;-73
2023/07/13 14:11:35;;;;;;;2.25;1.20;;;;;;;;;;5013448;28;20229;-73
2023/07/13 14:14:40;;;;;;;2.88;1.20;;;;;;;;;;5012526;28;20185;-73
2023/07/13 14:17:44;;;;;;;2.22;1.10;;;;;;;;;;5013625;28;20182;-73
2023/07/13 14:20:50;;;;;;;3.20;1.20;;;;;;;;;;5013338;28;20216;-73
2023/07/13 14:23:54;;;;;;;3.47;1.17;;;;;;;;;;5013214;28;20530;-73
2023/07/13 14:26:58;;;;;;;3.72;1.23;;;;;;;;;;5013446;28;20190;-73
2023/07/13 14:30:03;;;;;;;4.47;1.40;;;;;;;;;;5012238;28;20213;-73
2023/07/13 14:33:09;;;;;;;2.55;1.13;;;;;;;;;;5013716;28;20174;-73
2023/07/13 14:36:32;;;;;;;2.72;1.27;;;;;;;;;;5013334;28;20178;-73
2023/07/13 14:39:36;;;;;;;3.88;1.05;;;;;;;;;;5012555;28;20182;-73
2023/07/13 14:42:40;;;;;;;2.00;1.30;;;;;;;;;;5012980;28;20221;-73
2023/07/13 14:45:49;;;;;;;3.90;1.35;;;;;;;;;;5013496;28;20633;-73
2023/07/13 14:49:03;;;;;;;12.23;2.03;;;;;;;;;;5013383;28;20633;-74
2023/07/13 14:52:20;;;;;;;2.28;1.33;;;;;;;;;;5012875;28;20246;-74
2023/07/13 14:55:26;;;;;;;2.17;1.10;;;;;;;;;;5012934;28;20202;-73
2023/07/13 14:58:31;;;;;;;2.03;1.20;;;;;;;;;;5013479;28;20182;-73
2023/07/13 15:01:37;;;;;;;1.58;1.17;;;;;;;;;;5012991;28;20217;-72
2023/07/13 15:04:41;;;;;;;2.33;1.20;;;;;;;;;;5013531;28;20178;-73
2023/07/13 15:07:45;;;;;;;3.67;1.30;;;;;;;;;;5012117;28;20202;-73
2023/07/13 15:10:49;;;;;;;3.03;1.25;;;;;;;;;;5013020;28;20578;-73
2023/07/13 15:13:53;;;;;;;2.05;1.00;;;;;;;;;;5013068;28;20201;-73
2023/07/13 15:16:57;;;;;;;1.38;1.10;;;;;;;;;;5012786;28;20197;-72
2023/07/13 15:20:01;;;;;;;1.90;1.02;;;;;;;;;;5013046;28;20182;-73
2023/07/13 15:23:06;;;;;;;2.03;0.98;;;;;;;;;;5013317;28;20182;-73
2023/07/13 15:26:14;;;;;;;2.55;1.15;;;;;;;;;;5013272;28;20182;-73
2023/07/13 15:29:18;;;;;;;3.15;1.00;;;;;;;;;;5016871;28;20182;-73
2023/07/13 15:32:23;;;;;;;2.33;1.23;;;;;;;;;;5016225;28;20209;-73
2023/07/13 15:35:27;;;;;;;2.88;1.02;;;;;;;;;;5016268;28;20178;-72
2023/07/13 15:38:32;;;;;;;3.78;1.40;;;;;;;;;;5016155;28;20186;-72
2023/07/13 15:41:37;;;;;;;4.47;1.38;;;;;;;;;;5016182;28;20213;-73
2023/07/13 15:44:42;;;;;;;1.95;1.17;;;;;;;;;;5016173;28;20178;-73
2023/07/13 15:47:46;;;;;;;6.47;1.38;;;;;;;;;;5015114;28;20217;-73
2023/07/13 15:50:53;;;;;;;3.50;1.10;;;;;;;;;;5016014;28;20229;-73
2023/07/13 15:54:05;;;;;;;2.50;1.27;;;;;;;;;;5016101;28;20545;-73
2023/07/13 15:57:11;;;;;;;1.73;1.00;;;;;;;;;;5015751;28;20197;-73
2023/07/13 16:00:20;;;;;;;4.55;1.13;;;;;;;;;;5015657;28;20176;-73
2023/07/13 16:03:25;;;;;;;4.72;1.42;;;;;;;;;;5015556;28;20647;-72
2023/07/13 16:06:34;;;;;;;2.67;1.30;;;;;;;;;;5015491;28;20188;-73
2023/07/13 16:09:40;;;;;;;2.38;1.10;;;;;;;;;;5015656;28;20196;-73
2023/07/13 16:12:44;;;;;;;7.22;1.45;;;;;;;;;;5014776;28;20212;-73
2023/07/13 16:15:49;;;;;;;2.00;1.10;;;;;;;;;;5015910;28;20216;-73
2023/07/13 16:18:55;;;;;;;2.50;1.00;;;;;;;;;;5015267;28;20178;-73
2023/07/13 16:22:00;;;;;;;3.05;1.20;;;;;;;;;;5015408;28;20226;-73
2023/07/13 16:25:19;;;;;;;2.95;1.15;;;;;;;;;;5014604;28;20184;-73
2023/07/13 16:28:25;;;;;;;2.95;1.20;;;;;;;;;;5015342;28;20629;-73
2023/07/13 16:31:32;;;;;;;5.03;1.50;;;;;;;;;;5015189;28;20238;-73
2023/07/13 16:34:38;;;;;;;5.38;1.40;;;;;;;;;;5003367;28;20183;-72
2023/07/13 16:37:42;;;;;;;3.97;1.30;;;;;;;;;;5014976;28;20189;-73
2023/07/13 16:40:49;;;;;;;3.75;0.98;;;;;;;;;;5015323;28;20676;-73
2023/07/13 16:43:54;;;;;;;1.35;1.10;;;;;;;;;;5014308;28;20179;-73
2023/07/13 16:47:00;;;;;;;2.28;1.20;;;;;;;;;;5002784;28;20206;-72
2023/07/13 16:50:15;;;;;;;1.92;1.05;;;;;;;;;;5014939;28;20189;-73
2023/07/13 16:53:22;;;;;;;2.65;1.17;;;;;;;;;;5014107;28;20187;-73
2023/07/13 16:56:26;;;;;;;2.03;1.10;;;;;;;;;;5014582;28;20203;-72
2023/07/13 16:59:32;;;;;;;2.08;1.08;;;;;;;;;;5014803;28;20191;-72
2023/07/13 17:02:38;;;;;;;3.90;1.08;;;;;;;;;;5014345;28;20220;-73
2023/07/13 17:05:43;;;;;;;2.22;1.10;;;;;;;;;;5013810;28;20189;-72
2023/07/13 17:08:50;;;;;;;2.40;1.10;;;;;;;;;;5014333;28;20533;-73
2023/07/13 17:11:54;;;;;;;3.55;0.90;;;;;;;;;;5014107;28;20225;-73
2023/07/13 17:15:01;;;;;;;3.28;1.17;;;;;;;;;;5014327;28;20192;-73
2023/07/13 17:18:07;;;;;;;3.08;1.20;;;;;;;;;;5014585;28;20186;-73
2023/07/13 17:21:14;;;;;;;8.02;1.20;;;;;;;;;;5013599;28;20219;-73
2023/07/13 17:24:27;;;;;;;1.97;1.10;;;;;;;;;;5013513;28;20174;-72
2023/07/13 17:27:32;;;;;;;2.57;1.20;;;;;;;;;;5014306;28;20190;-73
2023/07/13 17:30:40;;;;;;;2.63;0.93;;;;;;;;;;5002256;28;20268;-73
2023/07/13 17:33:45;;;;;;;4.17;1.47;;;;;;;;;;5014307;28;20201;-72
2023/07/13 17:36:49;;;;;;;4.13;1.30;;;;;;;;;;5013188;28;20366;-72
2023/07/13 17:39:53;;;;;;;1.73;1.27;;;;;;;;;;5014187;28;20631;-72
2023/07/13 17:42:58;;;;;;;3.20;1.07;;;;;;;;;;5013350;28;20181;-72
2023/07/13 17:46:10;;;;;;;2.20;1.17;;;;;;;;;;5013109;28;20208;-73
2023/07/13 17:49:29;;;;;;;4.53;1.30;;;;;;;;;;5013938;28;20188;-73
2023/07/13 17:52:33;;;;;;;4.37;1.30;;;;;;;;;;5013627;28;20699;-72
2023/07/13 17:55:37;;;;;;;4.00;1.50;;;;;;;;;;5013774;28;20186;-72
2023/07/13 17:58:42;;;;;;;2.47;1.03;;;;;;;;;;5013956;28;20188;-72
2023/07/13 18:01:47;;;;;;;3.83;1.43;;;;;;;;;;5013648;28;20211;-72
2023/07/13 18:04:51;;;;;;;2.97;1.30;;;;;;;;;;5013925;28;20198;-73
2023/07/13 18:07:55;;;;;;;2.10;1.20;;;;;;;;;;5013625;28;20204;-72
2023/07/13 18:11:01;;;;;;;2.53;0.90;;;;;;;;;;5012403;28;20220;-72
2023/07/13 18:14:06;;;;;;;2.43;1.37;;;;;;;;;;5013598;28;20630;-73
2023/07/13 18:17:13;;;;;;;2.13;1.07;;;;;;;;;;5012724;28;20644;-72
2023/07/13 18:20:21;;;;;;;5.57;1.50;;;;;;;;;;5013529;28;20188;-72
2023/07/13 18:23:25;;;;;;;3.47;1.20;;;;;;;;;;5013737;28;20180;-73
2023/07/13 18:26:29;;;;;;;2.50;1.23;;;;;;;;;;5012638;28;20198;-72
2023/07/13 18:29:34;;;;;;;4.23;1.30;;;;;;;;;;5013400;28;20181;-72
2023/07/13 18:32:41;;;;;;;3.00;1.60;;;;;;;;;;5012979;28;20223;-72
2023/07/13 18:35:45;;;;;;;6.53;1.40;;;;;;;;;;5013271;28;20185;-73
2023/07/13 18:38:49;;;;;;;3.80;1.27;;;;;;;;;;5013349;28;20654;-72